Time;durP1;ratioP1;P1;durP2;ratioP2;P2;SDS_P1;SDS_P2;PMS_P1;PMS_P2;Temp;Humidity;BMP_temperature;BMP_pressure;BME280_temperature;BME280_humidity;BME280_pressure;Samples;Min_cycle;Max_cycle;Signal;HPM_P1;HPM_P2
2022/10/07 00:02:17;;;;;;;;;;;;;;;9.20;75.21;99265.50;5002204;28;20374;-69
2022/10/07 00:04:45;;;;;;;;;;;;;;;9.24;74.69;99263.88;4969163;28;19931;-69
2022/10/07 00:07:13;;;;;;;;;;;;;;;9.20;74.53;99265.50;4993566;28;19922;-68
2022/10/07 00:09:41;;;;;;;;;;;;;;;9.21;75.18;99269.00;5002290;28;19932;-69
2022/10/07 00:12:11;;;;;;;;;;;;;;;9.11;75.16;99259.81;4999980;28;20402;-70
2022/10/07 00:14:41;;;;;;;;;;;;;;;9.13;75.03;99263.03;4992986;28;20012;-69
2022/10/07 00:17:09;;;;;;;;;;;;;;;9.13;75.19;99254.09;4991976;28;19925;-69
2022/10/07 00:19:37;;;;;;;;;;;;;;;8.86;75.91;99254.31;4986327;28;19979;-70
2022/10/07 00:22:05;;;;;;;;;;;;;;;8.89;75.97;99262.72;5000563;28;20299;-69
2022/10/07 00:24:32;;;;;;;;;;;;;;;8.63;76.60;99259.13;5008346;28;19926;-69
2022/10/07 00:27:00;;;;;;;;;;;;;;;8.81;76.29;99252.41;5006683;28;19926;-70
2022/10/07 00:29:29;;;;;;;;;;;;;;;8.90;76.13;99256.22;4988620;28;19930;-69
2022/10/07 00:31:56;;;;;;;;;;;;;;;8.98;75.83;99248.66;4982392;28;20595;-70
2022/10/07 00:34:24;;;;;;;;;;;;;;;8.99;75.44;99239.44;4982832;28;19983;-68
2022/10/07 00:36:52;;;;;;;;;;;;;;;8.96;75.24;99245.41;4991173;28;20086;-69
2022/10/07 00:39:20;;;;;;;;;;;;;;;8.69;76.19;99240.19;4983712;28;19933;-68
2022/10/07 00:41:50;;;;;;;;;;;;;;;8.83;76.10;99231.25;4968673;28;20024;-69
2022/10/07 00:44:27;;;;;;;;;;;;;;;8.86;75.52;99235.34;4986274;28;19933;-69
2022/10/07 00:47:00;;;;;;;;;;;;;;;8.77;75.99;99224.19;4982767;28;19936;-69
2022/10/07 00:49:29;;;;;;;;;;;;;;;8.80;75.74;99226.38;5000558;28;19929;-69
2022/10/07 00:51:57;;;;;;;;;;;;;;;8.88;75.52;99222.34;5005474;28;19929;-69
2022/10/07 00:54:28;;;;;;;;;;;;;;;8.90;75.41;99226.41;4984812;28;20390;-69
2022/10/07 00:56:57;;;;;;;;;;;;;;;8.89;75.34;99223.94;4992861;28;19929;-70
2022/10/07 00:59:26;;;;;;;;;;;;;;;8.85;75.44;99218.28;5004620;28;20401;-69
2022/10/07 01:01:58;;;;;;;;;;;;;;;8.88;75.44;99214.19;5004009;28;19949;-70
2022/10/07 01:04:26;;;;;;;;;;;;;;;8.88;75.30;99215.00;4985076;23;19988;-75
2022/10/07 01:06:55;;;;;;;;;;;;;;;8.60;76.08;99210.88;4934417;28;19941;-75
2022/10/07 01:09:24;;;;;;;;;;;;;;;8.65;76.09;99210.09;4934333;28;19945;-75
2022/10/07 01:11:55;;;;;;;;;;;;;;;8.74;75.82;99205.78;4935735;28;19934;-77
2022/10/07 01:14:29;;;;;;;;;;;;;;;8.72;75.60;99207.94;4951613;28;20021;-77
2022/10/07 01:17:01;;;;;;;;;;;;;;;8.77;75.47;99207.94;4948806;28;19957;-78
2022/10/07 01:19:45;;;;;;;;;;;;;;;8.81;75.25;99200.09;4937957;28;19968;-78
2022/10/07 01:22:16;;;;;;;;;;;;;;;8.78;75.15;99196.00;4921007;29;19926;-78
2022/10/07 01:24:46;;;;;;;;;;;;;;;8.77;75.26;99199.00;4935417;28;19926;-78
2022/10/07 01:27:16;;;;;;;;;;;;;;;8.75;75.44;99184.91;4927274;28;19934;-74
2022/10/07 01:29:46;;;;;;;;;;;;;;;8.86;75.15;99198.22;4934196;28;20520;-74
2022/10/07 01:32:16;;;;;;;;;;;;;;;8.80;75.10;99193.88;4944662;28;19930;-74
2022/10/07 01:34:44;;;;;;;;;;;;;;;8.78;74.89;99189.78;4933041;28;19926;-73
2022/10/07 01:37:15;;;;;;;;;;;;;;;8.75;75.14;99180.31;4931413;28;19961;-75
2022/10/07 01:39:46;;;;;;;;;;;;;;;8.75;74.89;99180.31;4934791;28;19926;-75
2022/10/07 01:42:17;;;;;;;;;;;;;;;8.74;74.97;99173.28;4935808;28;19926;-75
2022/10/07 01:44:46;;;;;;;;;;;;;;;8.73;75.12;99168.09;4941812;28;19949;-75
2022/10/07 01:47:41;;;;;;;;;;;;;;;8.65;75.25;99161.31;4927981;28;20032;-76
2022/10/07 01:50:13;;;;;;;;;;;;;;;8.53;75.83;99155.34;4950726;28;19935;-75
2022/10/07 01:52:51;;;;;;;;;;;;;;;8.63;75.51;99149.97;4949125;28;19970;-75
2022/10/07 01:55:27;;;;;;;;;;;;;;;8.72;75.28;99156.44;4933981;28;20029;-78
2022/10/07 01:58:00;;;;;;;;;;;;;;;8.73;74.88;99143.72;4932682;28;19973;-78
2022/10/07 02:00:54;;;;;;;;;;;;;;;8.71;74.83;99144.00;4928908;28;19934;-78
2022/10/07 02:03:27;;;;;;;;;;;;;;;8.72;75.16;99142.09;4943230;28;19965;-78
2022/10/07 02:08:54;;;;;;;;;;;;;;;8.65;75.08;99145.06;4950671;28;19969;-78
2022/10/07 02:11:27;;;;;;;;;;;;;;;8.65;74.87;99143.19;4949286;28;19926;-77
2022/10/07 02:14:23;;;;;;;;;;;;;;;8.62;75.57;99142.88;4965649;28;19929;-77
2022/10/07 02:16:52;;;;;;;;;;;;;;;8.61;75.51;99142.06;4936449;28;19977;-78
2022/10/07 02:19:22;;;;;;;;;;;;;;;8.65;75.31;99147.78;4949225;28;20020;-77
2022/10/07 02:21:52;;;;;;;;;;;;;;;8.64;75.08;99140.75;4925588;28;20008;-75
2022/10/07 02:24:21;;;;;;;;;;;;;;;8.66;75.96;99143.97;4949952;28;20024;-75
2022/10/07 02:26:50;;;;;;;;;;;;;;;8.69;75.70;99142.66;4934438;28;19930;-78
2022/10/07 02:29:21;;;;;;;;;;;;;;;8.66;75.56;99131.25;4925069;28;19945;-78
2022/10/07 02:31:57;;;;;;;;;;;;;;;8.66;75.52;99133.16;4928673;28;20685;-74
2022/10/07 02:34:29;;;;;;;;;;;;;;;8.66;75.92;99135.84;4932897;28;19956;-75
2022/10/07 02:36:59;;;;;;;;;;;;;;;8.71;75.60;99138.56;4946604;28;19973;-75
2022/10/07 02:39:29;;;;;;;;;;;;;;;8.62;75.52;99132.88;4932874;28;19930;-75
2022/10/07 02:41:59;;;;;;;;;;;;;;;8.65;75.51;99120.69;4965652;28;19929;-75
2022/10/07 02:44:29;;;;;;;;;;;;;;;8.64;75.72;99119.06;4955101;28;19926;-75
2022/10/07 02:46:59;;;;;;;;;;;;;;;8.64;75.60;99119.88;4927622;28;19926;-75
2022/10/07 02:49:27;;;;;;;;;;;;;;;8.64;75.55;99119.06;4930494;28;20001;-75
2022/10/07 02:51:57;;;;;;;;;;;;;;;8.66;75.40;99116.91;4962211;23;20394;-70
2022/10/07 02:54:27;;;;;;;;;;;;;;;8.70;75.32;99118.00;4960715;28;20020;-69
2022/10/07 02:56:55;;;;;;;;;;;;;;;8.72;75.03;99115.00;4968683;28;20297;-69
2022/10/07 02:59:24;;;;;;;;;;;;;;;8.67;74.81;99107.69;4964485;28;20005;-69
2022/10/07 03:05:11;;;;;;;;;;;;;;;8.57;75.42;99108.47;4967331;28;19928;-69
2022/10/07 03:07:42;;;;;;;;;;;;;;;8.59;75.38;99103.63;4958949;28;19926;-69
2022/10/07 03:10:12;;;;;;;;;;;;;;;8.51;75.59;99098.72;4966994;28;19937;-69
2022/10/07 03:12:42;;;;;;;;;;;;;;;8.54;75.42;99102.78;4964240;28;19926;-69
2022/10/07 03:15:13;;;;;;;;;;;;;;;8.50;75.42;99099.81;4957902;28;19934;-69
2022/10/07 03:17:41;;;;;;;;;;;;;;;8.53;75.16;99095.75;4970154;28;19927;-69
2022/10/07 03:24:11;;;;;;;;;;;;;;;8.48;75.13;99098.47;5057395;23;19926;-95
2022/10/07 03:26:46;;;;;;;;;;;;;;;8.47;75.14;99099.50;4961741;28;19926;-94
2022/10/07 03:29:14;;;;;;;;;;;;;;;8.48;75.32;99098.47;4961562;28;19926;-95
2022/10/07 03:31:44;;;;;;;;;;;;;;;8.47;74.81;99089.53;4992600;28;19933;-94
2022/10/07 03:34:13;;;;;;;;;;;;;;;8.39;75.07;99085.44;4993583;28;20284;-94
2022/10/07 03:36:44;;;;;;;;;;;;;;;8.41;75.21;99090.56;4961196;28;20012;-95
2022/10/07 03:39:14;;;;;;;;;;;;;;;8.16;75.95;99087.81;4993661;28;19930;-95
2022/10/07 03:41:42;;;;;;;;;;;;;;;8.21;75.78;99091.34;4994944;28;19979;-94
2022/10/07 03:44:10;;;;;;;;;;;;;;;8.00;75.81;99078.81;4961881;28;19926;-96
2022/10/07 03:46:39;;;;;;;;;;;;;;;8.00;76.03;99081.53;4992759;28;19925;-96
2022/10/07 03:49:08;;;;;;;;;;;;;;;8.08;75.85;99083.69;4993843;28;19925;-96
2022/10/07 03:51:36;;;;;;;;;;;;;;;7.91;76.35;99083.91;4977700;28;19926;-95
2022/10/07 03:57:00;;;;;;;;;;;;;;;8.04;76.11;99077.19;4962573;28;20008;-95
2022/10/07 03:59:29;;;;;;;;;;;;;;;8.08;75.85;99081.00;4998057;28;19996;-95
2022/10/07 04:01:57;;;;;;;;;;;;;;;8.09;75.68;99072.59;4964086;28;19932;-95
2022/10/07 04:04:26;;;;;;;;;;;;;;;8.08;75.63;99072.88;4964984;28;20336;-95
2022/10/07 04:06:58;;;;;;;;;;;;;;;8.08;75.76;99078.28;4966582;28;19926;-92
2022/10/07 04:09:51;;;;;;;;;;;;;;;8.09;75.65;99071.78;4997049;28;19926;-92
2022/10/07 04:12:46;;;;;;;;;;;;;;;8.13;75.34;99071.00;4997372;28;19929;-93
2022/10/07 04:15:37;;;;;;;;;;;;;;;8.08;75.46;99064.75;4981677;28;20026;-92
2022/10/07 04:18:26;;;;;;;;;;;;;;;8.10;75.29;99057.19;5010389;28;19941;-92
2022/10/07 04:21:14;;;;;;;;;;;;;;;7.78;76.48;99052.78;5010217;28;19925;-93
2022/10/07 04:24:03;;;;;;;;;;;;;;;7.88;76.28;99052.81;4983246;28;19926;-92
2022/10/07 04:26:51;;;;;;;;;;;;;;;7.95;75.71;99049.03;5010456;28;19972;-92
2022/10/07 04:29:43;;;;;;;;;;;;;;;7.97;75.69;99044.16;4983264;28;19937;-92
2022/10/07 04:32:33;;;;;;;;;;;;;;;8.05;75.78;99043.66;5009485;28;20154;-93
2022/10/07 04:35:25;;;;;;;;;;;;;;;8.05;75.37;99032.81;4982884;28;20013;-92
2022/10/07 04:38:00;;;;;;;;;;;;;;;8.05;75.44;99033.63;4980968;28;19929;-94
2022/10/07 04:40:29;;;;;;;;;;;;;;;8.05;75.38;99043.66;5013050;28;20037;-93
2022/10/07 04:45:46;;;;;;;;;;;;;;;8.17;75.13;99024.44;4978459;28;19937;-93
2022/10/07 04:51:09;;;;;;;;;;;;;;;8.24;74.67;99033.94;4979577;28;19961;-93
2022/10/07 04:53:40;;;;;;;;;;;;;;;8.18;74.73;99029.59;5013167;28;20353;-93
2022/10/07 04:56:10;;;;;;;;;;;;;;;8.21;74.66;99015.53;4980262;28;19926;-91
2022/10/07 04:58:38;;;;;;;;;;;;;;;8.21;74.44;99015.53;4979825;28;20353;-92
2022/10/07 05:01:08;;;;;;;;;;;;;;;8.22;74.21;99011.75;5011303;28;19929;-93
2022/10/07 05:03:40;;;;;;;;;;;;;;;8.26;73.81;99006.59;5012892;28;19926;-92
2022/10/07 05:06:11;;;;;;;;;;;;;;;8.22;73.71;99019.84;5012262;28;19972;-93
2022/10/07 05:09:05;;;;;;;;;;;;;;;8.15;73.95;99019.31;4979328;28;20444;-92
2022/10/07 05:11:39;;;;;;;;;;;;;;;8.14;73.89;99023.09;5012646;28;19949;-94
2022/10/07 05:14:33;;;;;;;;;;;;;;;8.20;73.71;99015.78;5009166;28;19947;-93
2022/10/07 05:17:22;;;;;;;;;;;;;;;8.11;73.79;99021.72;5003959;28;20009;-94
2022/10/07 05:20:12;;;;;;;;;;;;;;;8.11;73.95;99018.22;4982790;28;19926;-91
2022/10/07 05:23:03;;;;;;;;;;;;;;;8.11;74.12;98999.28;5008792;28;20025;-91
2022/10/07 05:25:57;;;;;;;;;;;;;;;8.10;74.69;99011.19;5023681;23;19930;-69
2022/10/07 05:28:47;;;;;;;;;;;;;;;8.23;74.65;99007.94;5005094;28;19933;-72
2022/10/07 05:31:39;;;;;;;;;;;;;;;8.26;74.38;98995.78;4986002;28;20383;-69
2022/10/07 05:34:07;;;;;;;;;;;;;;;8.27;74.55;99000.09;5013650;28;20025;-69
2022/10/07 05:36:37;;;;;;;;;;;;;;;8.30;74.39;98994.94;4978032;28;20013;-69
2022/10/07 05:39:07;;;;;;;;;;;;;;;8.31;74.61;98984.94;5013602;28;19930;-69
2022/10/07 05:41:43;;;;;;;;;;;;;;;8.34;74.59;98982.50;4978677;28;20085;-68
2022/10/07 05:44:18;;;;;;;;;;;;;;;8.39;74.61;98985.25;5003782;28;20516;-69
2022/10/07 05:46:48;;;;;;;;;;;;;;;8.23;75.05;98983.59;4982224;28;19929;-69
2022/10/07 05:49:43;;;;;;;;;;;;;;;8.24;75.50;98977.06;4985863;28;19926;-69
2022/10/07 05:52:13;;;;;;;;;;;;;;;8.39;74.68;98992.56;5017925;28;19929;-70
2022/10/07 05:54:43;;;;;;;;;;;;;;;8.38;74.69;98983.63;4989116;28;19955;-70
2022/10/07 05:57:38;;;;;;;;;;;;;;;8.39;74.82;98987.94;5020544;28;20043;-69
2022/10/07 06:00:08;;;;;;;;;;;;;;;8.54;74.78;98991.75;4988786;28;19969;-69
2022/10/07 06:02:45;;;;;;;;;;;;;;;8.58;74.44;98990.13;4993005;28;19956;-71
2022/10/07 06:05:14;;;;;;;;;;;;;;;8.62;74.41;98983.88;4991017;28;20012;-69
2022/10/07 06:07:43;;;;;;;;;;;;;;;8.68;74.48;98987.38;4987738;28;19930;-70
2022/10/07 06:13:07;;;;;;;;;;;;;;;8.61;74.76;98973.31;4975937;28;19933;-69
2022/10/07 06:15:37;;;;;;;;;;;;;;;8.79;73.75;98974.63;5016885;28;19929;-69
2022/10/07 06:18:06;;;;;;;;;;;;;;;8.82;73.94;98980.34;4975902;28;21005;-69
2022/10/07 06:20:34;;;;;;;;;;;;;;;8.88;73.76;98973.00;4987439;28;20550;-70
2022/10/07 06:23:05;;;;;;;;;;;;;;;8.95;73.19;98978.13;5024269;28;19926;-70
2022/10/07 06:25:36;;;;;;;;;;;;;;;8.91;72.95;98978.69;4991723;28;19932;-69
2022/10/07 06:28:03;;;;;;;;;;;;;;;9.00;74.00;98987.09;4991710;28;19980;-69
2022/10/07 06:30:32;;;;;;;;;;;;;;;9.03;73.85;98974.88;5015873;28;19929;-70
2022/10/07 06:33:01;;;;;;;;;;;;;;;9.03;72.81;98977.59;4993437;28;19934;-69
2022/10/07 06:35:30;;;;;;;;;;;;;;;9.09;72.98;98976.47;4987223;28;19926;-70
2022/10/07 06:37:58;;;;;;;;;;;;;;;9.07;72.63;98981.38;4988360;28;19933;-69
2022/10/07 06:40:28;;;;;;;;;;;;;;;9.10;72.42;98981.63;4991836;28;19985;-69
2022/10/07 06:42:56;;;;;;;;;;;;;;;8.91;72.93;98984.13;5013494;28;20024;-71
2022/10/07 06:45:30;;;;;;;;;;;;;;;8.75;73.69;98977.09;4985121;28;20192;-70
2022/10/07 06:47:59;;;;;;;;;;;;;;;8.72;73.85;98982.25;5014825;28;19964;-70
2022/10/07 06:50:28;;;;;;;;;;;;;;;8.90;73.16;98971.66;5002168;28;19929;-69
2022/10/07 06:52:56;;;;;;;;;;;;;;;8.98;73.29;98969.47;4987916;28;19964;-70
2022/10/07 06:55:26;;;;;;;;;;;;;;;9.09;72.93;98979.19;4985500;28;19933;-70
2022/10/07 06:57:55;;;;;;;;;;;;;;;9.15;72.81;98981.59;4996422;28;19926;-70
2022/10/07 07:00:24;;;;;;;;;;;;;;;9.10;73.59;98983.53;5025464;28;19988;-70
2022/10/07 07:02:53;;;;;;;;;;;;;;;9.25;72.87;98975.34;5022941;28;19969;-69
2022/10/07 07:05:23;;;;;;;;;;;;;;;9.23;72.73;98972.13;4984128;28;19976;-69
2022/10/07 07:07:51;;;;;;;;;;;;;;;9.29;72.44;98967.47;4988848;28;20027;-70
2022/10/07 07:10:20;;;;;;;;;;;;;;;9.35;72.28;98967.19;5016020;28;19932;-69
2022/10/07 07:12:52;;;;;;;;;;;;;;;9.41;72.71;98974.19;5024254;28;19933;-71
2022/10/07 07:15:22;;;;;;;;;;;;;;;9.28;72.75;98976.72;4987831;28;19969;-70
2022/10/07 07:17:50;;;;;;;;;;;;;;;9.42;72.56;98972.31;4997010;28;20023;-70
2022/10/07 07:20:19;;;;;;;;;;;;;;;9.51;72.62;98969.84;5020359;28;20501;-70
2022/10/07 07:22:49;;;;;;;;;;;;;;;9.44;72.80;98975.56;4999287;28;20014;-69
2022/10/07 07:25:16;;;;;;;;;;;;;;;9.49;73.00;98966.59;5000838;28;19925;-70
2022/10/07 07:27:45;;;;;;;;;;;;;;;9.50;72.74;98973.63;5002293;28;19929;-70
2022/10/07 07:30:14;;;;;;;;;;;;;;;9.55;73.08;98974.44;4989082;28;19934;-70
2022/10/07 07:32:45;;;;;;;;;;;;;;;9.64;72.60;98971.94;5021496;28;19938;-69
2022/10/07 07:35:13;;;;;;;;;;;;;;;9.67;72.84;98974.91;5024982;28;19929;-70
2022/10/07 07:37:41;;;;;;;;;;;;;;;9.70;72.29;98973.56;4994447;28;20001;-69
2022/10/07 07:40:11;;;;;;;;;;;;;;;9.75;72.64;98976.22;4994031;28;19925;-70
2022/10/07 07:42:39;;;;;;;;;;;;;;;9.75;72.24;98976.22;4994354;28;19964;-69
2022/10/07 07:45:10;;;;;;;;;;;;;;;9.76;72.25;98983.28;4986143;28;19929;-69
2022/10/07 07:47:41;;;;;;;;;;;;;;;9.79;71.93;98980.00;4999054;28;19925;-70
2022/10/07 07:50:10;;;;;;;;;;;;;;;9.82;71.69;98967.78;5001840;28;20444;-70
2022/10/07 07:52:38;;;;;;;;;;;;;;;9.82;72.07;98974.00;5002526;28;19963;-69
2022/10/07 07:55:07;;;;;;;;;;;;;;;9.77;72.56;98970.53;5006052;28;19933;-70
2022/10/07 07:57:36;;;;;;;;;;;;;;;9.84;71.96;98963.69;5001350;28;19926;-71
2022/10/07 08:00:10;;;;;;;;;;;;;;;9.82;71.64;98965.88;4990677;28;20602;-70
2022/10/07 08:02:41;;;;;;;;;;;;;;;9.86;71.98;98966.13;5005047;28;20025;-70
2022/10/07 08:05:19;;;;;;;;;;;;;;;9.88;71.91;98964.75;4993135;28;20436;-69
2022/10/07 08:07:53;;;;;;;;;;;;;;;9.86;71.58;98960.72;5005368;28;19925;-69
2022/10/07 08:10:24;;;;;;;;;;;;;;;9.91;72.32;98960.69;4988562;28;19929;-58
2022/10/07 08:12:56;;;;;;;;;;;;;;;9.91;72.11;98958.78;4986583;28;19973;-58
2022/10/07 08:15:25;;;;;;;;;;;;;;;10.00;71.39;98952.72;4985241;28;19980;-58
2022/10/07 08:17:54;;;;;;;;;;;;;;;10.07;71.60;98951.34;5010237;28;20020;-58
2022/10/07 08:20:23;;;;;;;;;;;;;;;10.17;71.70;98953.13;4986249;28;19988;-58
2022/10/07 08:22:52;;;;;;;;;;;;;;;10.08;71.54;98952.16;5007744;28;19933;-58
2022/10/07 08:28:53;;;;;;;;;;;;;;;10.23;71.10;98950.16;3398887;23;19927;-79
2022/10/07 08:31:26;;;;;;;;;;;;;;;10.34;71.00;98952.78;4951491;28;19949;-78
2022/10/07 08:33:54;;;;;;;;;;;;;;;10.44;70.93;98950.81;4953249;28;19926;-79
2022/10/07 08:36:25;;;;;;;;;;;;;;;10.51;70.83;98955.09;4971435;28;19926;-79
2022/10/07 08:45:47;;;;;;;;;;;;;;;10.55;70.28;98945.28;4924126;29;19948;-58
2022/10/07 08:48:17;;;;;;;;;;;;;;;10.67;70.40;98953.84;4933871;29;20558;-63
2022/10/07 08:50:47;;;;;;;;;;;;;;;10.77;70.12;98950.25;4932103;29;19931;-58
2022/10/07 08:53:19;;;;;;;;;;;;;;;10.82;69.74;98945.56;4932579;29;19927;-58
2022/10/07 08:55:49;;;;;;;;;;;;;;;10.88;70.12;98946.31;4933227;29;19927;-58
2022/10/07 08:58:28;;;;;;;;;;;;;;;10.93;70.20;98941.63;4932331;29;19955;-58
2022/10/07 09:00:57;;;;;;;;;;;;;;;10.91;69.79;98938.38;4928575;29;19927;-58
2022/10/07 09:03:30;;;;;;;;;;;;;;;10.96;70.48;98935.59;4932962;29;19942;-58
2022/10/07 09:05:58;;;;;;;;;;;;;;;11.00;70.56;98941.28;4932268;29;19938;-58
2022/10/07 09:08:28;;;;;;;;;;;;;;;10.98;70.23;98932.63;4932952;29;19933;-58
2022/10/07 09:10:58;;;;;;;;;;;;;;;11.06;70.23;98928.44;4933403;29;19990;-58
2022/10/07 09:13:29;;;;;;;;;;;;;;;11.12;70.13;98932.72;4929826;29;19927;-58
2022/10/07 09:16:11;;;;;;;;;;;;;;;11.11;69.78;98926.47;4908355;29;19927;-58
2022/10/07 09:18:40;;;;;;;;;;;;;;;11.12;69.84;98922.66;4934897;29;19930;-58
2022/10/07 09:21:10;;;;;;;;;;;;;;;11.16;70.36;98928.31;4933369;29;20279;-57
2022/10/07 09:23:39;;;;;;;;;;;;;;;11.24;70.25;98919.53;4938041;29;20585;-58
2022/10/07 09:26:09;;;;;;;;;;;;;;;11.28;69.69;98915.13;4938169;29;19970;-58
2022/10/07 09:29:02;;;;;;;;;;;;;;;11.39;70.05;98913.88;4934646;29;19947;-57
2022/10/07 09:31:31;;;;;;;;;;;;;;;11.46;70.00;98905.38;4929761;29;20388;-57
2022/10/07 09:33:59;;;;;;;;;;;;;;;11.51;68.84;98908.84;4937298;29;19953;-57
2022/10/07 09:36:28;;;;;;;;;;;;;;;11.55;68.61;98901.69;4939320;29;19933;-57
2022/10/07 09:38:57;;;;;;;;;;;;;;;11.49;69.18;98900.13;4931733;29;19927;-58
2022/10/07 09:41:30;;;;;;;;;;;;;;;11.54;69.08;98902.78;4931722;29;19931;-58
2022/10/07 09:44:24;;;;;;;;;;;;;;;11.57;68.63;98906.06;4934440;29;19989;-58
2022/10/07 09:46:56;;;;;;;;;;;;;;;11.78;68.24;98900.03;4928729;28;19931;-58
2022/10/07 09:49:29;;;;;;;;;;;;;;;11.83;68.12;98885.56;4934532;29;19962;-58
2022/10/07 09:52:00;;;;;;;;;;;;;;;11.95;68.38;98896.78;4932983;29;19927;-60
2022/10/07 09:57:24;;;;;;;;;;;;;;;12.09;68.36;98879.69;4929091;29;19933;-57
2022/10/07 09:59:53;;;;;;;;;;;;;;;12.09;68.08;98879.69;4931710;29;19927;-58
2022/10/07 10:02:22;;;;;;;;;;;;;;;12.17;68.71;98882.56;4930733;29;20039;-57
2022/10/07 10:04:51;;;;;;;;;;;;;;;12.22;68.32;98879.75;4931693;29;19982;-57
2022/10/07 10:07:27;;;;;;;;;;;;;;;12.24;67.53;98877.50;4933573;29;19927;-57
2022/10/07 10:09:56;;;;;;;;;;;;;;;12.32;68.46;98879.56;4929168;29;20618;-57
2022/10/07 10:12:27;;;;;;;;;;;;;;;12.38;68.07;98883.00;4931955;29;19981;-57
2022/10/07 10:14:58;;;;;;;;;;;;;;;12.46;68.18;98867.88;4929605;29;19969;-59
2022/10/07 10:17:30;;;;;;;;;;;;;;;12.54;68.38;98876.19;4923818;29;19930;-57
2022/10/07 10:20:13;;;;;;;;;;;;;;;12.64;68.04;98880.66;4931460;29;19933;-57
2022/10/07 10:22:40;;;;;;;;;;;;;;;12.73;67.91;98869.84;4931080;29;19931;-57
2022/10/07 10:27:57;;;;;;;;;;;;;;;12.85;68.19;98867.44;4933573;29;19970;-57
2022/10/07 10:30:25;;;;;;;;;;;;;;;12.89;67.74;98863.00;4921886;29;20257;-57
2022/10/07 10:33:14;;;;;;;;;;;;;;;12.93;68.13;98866.72;4931415;29;19937;-57
2022/10/07 10:35:45;;;;;;;;;;;;;;;12.88;68.15;98869.53;4905146;29;19931;-57
2022/10/07 10:38:19;;;;;;;;;;;;;;;12.95;68.20;98864.50;4931303;29;19926;-57
2022/10/07 10:40:50;;;;;;;;;;;;;;;12.88;68.60;98864.09;4916646;29;19927;-57
2022/10/07 10:43:20;;;;;;;;;;;;;;;12.93;68.24;98850.34;4930201;29;19927;-58
2022/10/07 10:45:56;;;;;;;;;;;;;;;13.03;67.84;98849.34;4924194;28;19931;-57
2022/10/07 10:48:29;;;;;;;;;;;;;;;13.09;67.64;98848.91;4928922;29;20307;-57
2022/10/07 10:50:57;;;;;;;;;;;;;;;13.10;67.80;98838.81;4934963;29;19969;-57
2022/10/07 10:53:30;;;;;;;;;;;;;;;13.22;67.32;98841.06;4931891;29;19927;-57
2022/10/07 10:56:02;;;;;;;;;;;;;;;13.26;67.33;98837.44;4933522;29;19978;-58
2022/10/07 10:58:32;;;;;;;;;;;;;;;13.30;67.43;98832.97;4933861;29;20030;-57
2022/10/07 11:01:06;;;;;;;;;;;;;;;13.37;68.38;98832.56;4924127;29;19976;-57
2022/10/07 11:03:45;;;;;;;;;;;;;;;13.43;67.42;98828.59;4930944;29;19931;-57
2022/10/07 11:06:39;;;;;;;;;;;;;;;13.49;67.17;98829.28;4930235;29;19927;-57
2022/10/07 11:09:08;;;;;;;;;;;;;;;13.59;67.79;98818.94;4931240;29;19927;-58
2022/10/07 11:11:37;;;;;;;;;;;;;;;13.67;67.06;98822.03;4931263;29;19937;-57
2022/10/07 11:14:06;;;;;;;;;;;;;;;13.71;67.26;98817.59;4931365;29;19927;-57
2022/10/07 11:16:35;;;;;;;;;;;;;;;13.75;67.34;98811.19;4923413;29;20894;-57
2022/10/07 11:19:05;;;;;;;;;;;;;;;13.86;67.28;98807.09;4931458;29;19927;-57
2022/10/07 11:21:34;;;;;;;;;;;;;;;13.94;67.49;98802.78;4930457;29;20480;-57
2022/10/07 11:24:05;;;;;;;;;;;;;;;13.98;66.94;98800.25;4931220;29;19927;-57
2022/10/07 11:26:34;;;;;;;;;;;;;;;13.95;66.62;98798.94;4929415;29;19949;-57
2022/10/07 11:29:04;;;;;;;;;;;;;;;14.04;66.72;98791.63;4931191;29;19938;-58
2022/10/07 11:31:34;;;;;;;;;;;;;;;14.09;66.68;98788.75;4918304;29;19946;-57
2022/10/07 11:34:14;;;;;;;;;;;;;;;14.10;66.61;98784.09;4931198;29;20025;-57
2022/10/07 11:36:47;;;;;;;;;;;;;;;14.10;66.00;98779.44;4930586;29;20295;-57
2022/10/07 11:39:40;;;;;;;;;;;;;;;14.04;66.68;98780.69;4930526;29;20012;-58
2022/10/07 11:42:11;;;;;;;;;;;;;;;14.19;66.17;98784.16;4931186;29;20448;-57
2022/10/07 11:44:52;;;;;;;;;;;;;;;14.31;65.65;98779.69;4930199;29;20030;-57
2022/10/07 11:47:23;;;;;;;;;;;;;;;14.32;65.12;98775.03;4923364;29;19927;-58
2022/10/07 11:49:54;;;;;;;;;;;;;;;14.37;65.49;98769.44;4922415;29;20037;-61
2022/10/07 11:52:23;;;;;;;;;;;;;;;14.39;65.25;98759.00;4930236;29;19931;-58
2022/10/07 11:54:52;;;;;;;;;;;;;;;14.43;65.19;98759.97;4930531;29;20147;-57
2022/10/07 11:57:21;;;;;;;;;;;;;;;14.51;65.12;98755.69;4933007;29;20025;-57
2022/10/07 11:59:51;;;;;;;;;;;;;;;14.56;64.44;98755.56;4930733;29;20376;-57
2022/10/07 12:02:42;;;;;;;;;;;;;;;14.64;64.27;98750.09;4909030;29;19928;-57
2022/10/07 12:05:28;;;;;;;;;;;;;;;14.72;63.82;98739.50;4931337;29;19958;-57
2022/10/07 12:08:01;;;;;;;;;;;;;;;14.79;62.84;98734.38;4930765;29;19927;-57
2022/10/07 12:10:31;;;;;;;;;;;;;;;14.77;63.04;98731.16;4930547;29;20025;-57
2022/10/07 12:13:14;;;;;;;;;;;;;;;14.86;63.20;98723.75;4930710;29;19927;-57
2022/10/07 12:15:44;;;;;;;;;;;;;;;14.90;62.42;98711.06;4922764;29;20249;-57
2022/10/07 12:18:26;;;;;;;;;;;;;;;14.92;62.45;98717.03;4914419;29;19934;-58
2022/10/07 12:21:03;;;;;;;;;;;;;;;14.94;62.40;98712.03;4932863;29;19926;-57
2022/10/07 12:23:49;;;;;;;;;;;;;;;14.96;62.75;98707.03;4934042;29;19949;-57
2022/10/07 12:26:40;;;;;;;;;;;;;;;15.02;62.46;98696.75;4926999;29;19933;-57
2022/10/07 12:29:14;;;;;;;;;;;;;;;15.01;62.41;98697.88;4931662;29;19970;-57
2022/10/07 12:31:47;;;;;;;;;;;;;;;15.08;62.71;98688.06;4924590;29;20018;-57
2022/10/07 12:37:37;;;;;;;;;;;;;;;15.14;62.82;98681.31;4933949;29;19978;-57
2022/10/07 12:40:07;;;;;;;;;;;;;;;15.19;63.04;98675.66;4918372;29;20177;-57
2022/10/07 12:42:35;;;;;;;;;;;;;;;15.30;62.93;98667.13;4923564;29;19978;-57
2022/10/07 12:45:06;;;;;;;;;;;;;;;15.34;63.05;98657.13;4929560;29;19927;-58
2022/10/07 12:47:35;;;;;;;;;;;;;;;15.44;62.95;98673.22;4932636;29;19977;-57
2022/10/07 12:50:04;;;;;;;;;;;;;;;15.55;62.98;98658.03;4932757;29;20074;-57
2022/10/07 12:52:34;;;;;;;;;;;;;;;15.64;62.85;98658.06;4943048;29;19926;-58
2022/10/07 12:55:03;;;;;;;;;;;;;;;15.76;62.35;98649.16;4936532;29;20616;-57
2022/10/07 12:57:32;;;;;;;;;;;;;;;15.82;61.98;98648.69;4936180;29;20542;-57
2022/10/07 13:00:05;;;;;;;;;;;;;;;15.86;61.78;98644.13;4936156;29;19927;-57
2022/10/07 13:02:51;;;;;;;;;;;;;;;15.97;61.22;98641.84;4937806;29;19945;-57
2022/10/07 13:05:40;;;;;;;;;;;;;;;15.96;61.71;98642.97;4927205;29;19927;-58
2022/10/07 13:08:26;;;;;;;;;;;;;;;15.89;62.15;98639.94;4932419;29;19986;-58
2022/10/07 13:11:09;;;;;;;;;;;;;;;15.93;62.00;98636.22;4922665;29;20017;-58
2022/10/07 13:13:40;;;;;;;;;;;;;;;15.96;62.27;98632.00;4929450;29;19935;-58
2022/10/07 13:16:08;;;;;;;;;;;;;;;16.00;62.02;98630.22;4909183;29;19937;-58
2022/10/07 13:18:39;;;;;;;;;;;;;;;16.04;62.00;98622.97;4932970;29;20363;-58
2022/10/07 13:21:17;;;;;;;;;;;;;;;16.11;61.84;98619.69;4933354;29;20474;-57
2022/10/07 13:23:48;;;;;;;;;;;;;;;16.16;61.73;98606.59;4933549;29;19937;-57
2022/10/07 13:26:16;;;;;;;;;;;;;;;16.23;61.62;98612.34;4928184;29;19934;-58
2022/10/07 13:28:46;;;;;;;;;;;;;;;16.27;61.58;98608.97;4914557;29;19938;-57
2022/10/07 13:31:18;;;;;;;;;;;;;;;16.27;61.89;98607.03;4921626;29;19933;-58
2022/10/07 13:33:46;;;;;;;;;;;;;;;16.28;61.81;98607.81;4928908;29;20458;-57
2022/10/07 13:36:20;;;;;;;;;;;;;;;16.27;61.46;98603.47;4928847;29;19961;-58
2022/10/07 13:38:49;;;;;;;;;;;;;;;16.28;61.64;98596.84;4929436;29;19964;-57
2022/10/07 13:41:21;;;;;;;;;;;;;;;16.31;61.65;98596.22;4918477;29;20025;-58
2022/10/07 13:43:53;;;;;;;;;;;;;;;16.35;61.08;98592.47;4920835;29;19931;-57
2022/10/07 13:46:49;;;;;;;;;;;;;;;16.39;61.58;98587.09;4916498;28;19927;-57
2022/10/07 13:49:20;;;;;;;;;;;;;;;16.45;61.30;98574.81;4928817;29;19965;-58
2022/10/07 13:51:48;;;;;;;;;;;;;;;16.50;61.39;98574.59;4921431;29;19994;-57
2022/10/07 13:54:20;;;;;;;;;;;;;;;16.54;61.82;98564.56;4918455;29;19927;-57
2022/10/07 13:56:54;;;;;;;;;;;;;;;16.59;61.53;98564.38;4914956;29;21206;-57
2022/10/07 13:59:23;;;;;;;;;;;;;;;16.57;61.74;98555.69;4918852;29;20372;-57
2022/10/07 14:01:51;;;;;;;;;;;;;;;16.61;61.61;98553.06;4909195;29;20407;-58
2022/10/07 14:04:30;;;;;;;;;;;;;;;16.60;61.77;98560.50;4923488;29;20013;-58